sensor_id;sensor_type;location;lat;lon;timestamp;P1;durP1;ratioP1;P2;durP2;ratioP2
9964;SDS011;5023;53.554;9.964;2024-03-29T00:00:21;6.80;;;4.97;;
9964;SDS011;5023;53.554;9.964;2024-03-29T00:05:23;2.77;;;2.50;;
9964;SDS011;5023;53.554;9.964;2024-03-29T00:10:24;4.17;;;2.63;;
9964;SDS011;5023;53.554;9.964;2024-03-29T00:15:25;4.40;;;2.90;;
9964;SDS011;5023;53.554;9.964;2024-03-29T00:20:27;5.80;;;2.90;;
9964;SDS011;5023;53.554;9.964;2024-03-29T00:25:29;4.83;;;3.50;;
9964;SDS011;5023;53.554;9.964;2024-03-29T00:30:30;4.37;;;3.80;;
9964;SDS011;5023;53.554;9.964;2024-03-29T00:35:32;3.33;;;2.77;;
9964;SDS011;5023;53.554;9.964;2024-03-29T00:40:33;4.83;;;2.80;;
9964;SDS011;5023;53.554;9.964;2024-03-29T00:45:36;4.90;;;3.47;;
9964;SDS011;5023;53.554;9.964;2024-03-29T00:50:39;3.30;;;2.30;;
9964;SDS011;5023;53.554;9.964;2024-03-29T00:55:40;4.80;;;4.00;;
9964;SDS011;5023;53.554;9.964;2024-03-29T01:00:41;3.47;;;2.93;;
9964;SDS011;5023;53.554;9.964;2024-03-29T01:05:43;4.00;;;3.33;;
9964;SDS011;5023;53.554;9.964;2024-03-29T01:10:44;3.93;;;2.17;;
9964;SDS011;5023;53.554;9.964;2024-03-29T01:15:45;3.37;;;2.60;;
9964;SDS011;5023;53.554;9.964;2024-03-29T01:20:47;2.60;;;2.13;;
9964;SDS011;5023;53.554;9.964;2024-03-29T01:25:48;5.33;;;2.47;;
9964;SDS011;5023;53.554;9.964;2024-03-29T01:30:53;5.03;;;2.67;;
9964;SDS011;5023;53.554;9.964;2024-03-29T01:35:56;4.03;;;2.57;;
9964;SDS011;5023;53.554;9.964;2024-03-29T01:40:57;2.83;;;1.97;;
9964;SDS011;5023;53.554;9.964;2024-03-29T01:45:58;3.67;;;1.90;;
9964;SDS011;5023;53.554;9.964;2024-03-29T01:51:01;3.90;;;2.33;;
9964;SDS011;5023;53.554;9.964;2024-03-29T01:56:04;3.07;;;2.07;;
9964;SDS011;5023;53.554;9.964;2024-03-29T02:01:06;2.53;;;1.90;;
9964;SDS011;5023;53.554;9.964;2024-03-29T02:06:10;5.10;;;2.57;;
9964;SDS011;5023;53.554;9.964;2024-03-29T02:11:13;3.57;;;2.20;;
9964;SDS011;5023;53.554;9.964;2024-03-29T02:16:15;2.53;;;1.87;;
9964;SDS011;5023;53.554;9.964;2024-03-29T02:21:18;3.40;;;1.90;;
9964;SDS011;5023;53.554;9.964;2024-03-29T02:26:21;2.17;;;2.00;;
9964;SDS011;5023;53.554;9.964;2024-03-29T02:31:25;3.77;;;2.00;;
9964;SDS011;5023;53.554;9.964;2024-03-29T02:36:27;2.70;;;2.27;;
9964;SDS011;5023;53.554;9.964;2024-03-29T02:41:31;3.37;;;2.77;;
9964;SDS011;5023;53.554;9.964;2024-03-29T02:46:33;4.13;;;2.53;;
9964;SDS011;5023;53.554;9.964;2024-03-29T02:51:35;3.67;;;2.23;;
9964;SDS011;5023;53.554;9.964;2024-03-29T02:56:38;4.70;;;2.50;;
9964;SDS011;5023;53.554;9.964;2024-03-29T03:01:40;3.97;;;2.60;;
9964;SDS011;5023;53.554;9.964;2024-03-29T03:06:42;3.70;;;2.00;;
9964;SDS011;5023;53.554;9.964;2024-03-29T03:11:46;2.50;;;2.00;;
9964;SDS011;5023;53.554;9.964;2024-03-29T03:16:47;2.90;;;2.10;;
9964;SDS011;5023;53.554;9.964;2024-03-29T03:21:50;2.80;;;2.10;;
9964;SDS011;5023;53.554;9.964;2024-03-29T03:26:53;2.13;;;1.67;;
9964;SDS011;5023;53.554;9.964;2024-03-29T03:31:55;1.47;;;1.37;;
9964;SDS011;5023;53.554;9.964;2024-03-29T03:36:57;3.80;;;1.80;;
9964;SDS011;5023;53.554;9.964;2024-03-29T03:42:00;3.47;;;1.80;;
9964;SDS011;5023;53.554;9.964;2024-03-29T03:47:02;2.63;;;1.70;;
9964;SDS011;5023;53.554;9.964;2024-03-29T03:52:06;3.90;;;1.70;;
9964;SDS011;5023;53.554;9.964;2024-03-29T03:57:09;2.07;;;1.60;;
9964;SDS011;5023;53.554;9.964;2024-03-29T04:02:11;3.83;;;1.63;;
9964;SDS011;5023;53.554;9.964;2024-03-29T04:07:13;2.97;;;1.77;;
9964;SDS011;5023;53.554;9.964;2024-03-29T04:12:16;3.03;;;1.50;;
9964;SDS011;5023;53.554;9.964;2024-03-29T04:17:18;2.13;;;1.47;;
9964;SDS011;5023;53.554;9.964;2024-03-29T04:22:20;1.73;;;1.37;;
9964;SDS011;5023;53.554;9.964;2024-03-29T04:27:23;3.17;;;1.83;;
9964;SDS011;5023;53.554;9.964;2024-03-29T04:32:25;3.53;;;1.37;;
9964;SDS011;5023;53.554;9.964;2024-03-29T04:37:27;4.00;;;1.80;;
9964;SDS011;5023;53.554;9.964;2024-03-29T04:42:30;2.50;;;1.40;;
9964;SDS011;5023;53.554;9.964;2024-03-29T04:47:32;2.03;;;1.70;;
9964;SDS011;5023;53.554;9.964;2024-03-29T04:52:33;1.63;;;1.43;;
9964;SDS011;5023;53.554;9.964;2024-03-29T04:57:37;2.00;;;1.80;;
9964;SDS011;5023;53.554;9.964;2024-03-29T05:02:39;2.77;;;1.80;;
9964;SDS011;5023;53.554;9.964;2024-03-29T05:07:40;3.53;;;2.43;;
9964;SDS011;5023;53.554;9.964;2024-03-29T05:12:44;5.13;;;3.53;;
9964;SDS011;5023;53.554;9.964;2024-03-29T05:17:46;2.80;;;2.43;;
9964;SDS011;5023;53.554;9.964;2024-03-29T05:22:47;4.87;;;3.53;;
9964;SDS011;5023;53.554;9.964;2024-03-29T05:27:51;4.20;;;2.40;;
9964;SDS011;5023;53.554;9.964;2024-03-29T05:32:52;1.83;;;1.70;;
9964;SDS011;5023;53.554;9.964;2024-03-29T05:37:54;3.30;;;1.30;;
9964;SDS011;5023;53.554;9.964;2024-03-29T05:42:58;3.43;;;1.50;;
9964;SDS011;5023;53.554;9.964;2024-03-29T05:47:59;1.60;;;1.50;;
9964;SDS011;5023;53.554;9.964;2024-03-29T05:53:01;2.43;;;1.60;;
9964;SDS011;5023;53.554;9.964;2024-03-29T05:58:06;2.30;;;1.60;;
9964;SDS011;5023;53.554;9.964;2024-03-29T06:03:08;4.00;;;1.50;;
9964;SDS011;5023;53.554;9.964;2024-03-29T06:08:10;1.90;;;1.60;;
9964;SDS011;5023;53.554;9.964;2024-03-29T06:13:14;2.33;;;1.60;;
9964;SDS011;5023;53.554;9.964;2024-03-29T06:18:29;2.63;;;1.73;;
9964;SDS011;5023;53.554;9.964;2024-03-29T06:23:32;3.87;;;1.47;;
9964;SDS011;5023;53.554;9.964;2024-03-29T06:28:35;1.67;;;1.40;;
9964;SDS011;5023;53.554;9.964;2024-03-29T06:33:37;2.83;;;1.70;;
9964;SDS011;5023;53.554;9.964;2024-03-29T06:38:39;3.17;;;1.73;;
9964;SDS011;5023;53.554;9.964;2024-03-29T06:43:43;3.33;;;1.93;;
9964;SDS011;5023;53.554;9.964;2024-03-29T06:48:45;3.77;;;1.80;;
9964;SDS011;5023;53.554;9.964;2024-03-29T06:53:49;2.03;;;1.50;;
9964;SDS011;5023;53.554;9.964;2024-03-29T06:58:53;5.27;;;2.10;;
9964;SDS011;5023;53.554;9.964;2024-03-29T07:03:55;2.83;;;2.37;;
9964;SDS011;5023;53.554;9.964;2024-03-29T07:08:57;1.60;;;1.50;;
9964;SDS011;5023;53.554;9.964;2024-03-29T07:14:00;2.80;;;1.97;;
9964;SDS011;5023;53.554;9.964;2024-03-29T07:19:02;2.57;;;1.70;;
9964;SDS011;5023;53.554;9.964;2024-03-29T07:24:04;1.60;;;1.50;;
9964;SDS011;5023;53.554;9.964;2024-03-29T07:29:08;3.20;;;1.63;;
9964;SDS011;5023;53.554;9.964;2024-03-29T07:34:11;1.40;;;1.30;;
9964;SDS011;5023;53.554;9.964;2024-03-29T07:39:12;2.80;;;1.50;;
9964;SDS011;5023;53.554;9.964;2024-03-29T07:44:16;4.07;;;1.50;;
9964;SDS011;5023;53.554;9.964;2024-03-29T07:49:18;2.03;;;1.60;;
9964;SDS011;5023;53.554;9.964;2024-03-29T07:54:21;1.93;;;1.30;;
9964;SDS011;5023;53.554;9.964;2024-03-29T07:59:24;3.97;;;1.40;;
9964;SDS011;5023;53.554;9.964;2024-03-29T08:04:27;3.50;;;1.40;;
9964;SDS011;5023;53.554;9.964;2024-03-29T08:09:29;2.20;;;1.40;;
9964;SDS011;5023;53.554;9.964;2024-03-29T08:14:32;1.50;;;1.40;;
9964;SDS011;5023;53.554;9.964;2024-03-29T08:19:34;1.63;;;1.53;;
9964;SDS011;5023;53.554;9.964;2024-03-29T08:24:36;2.53;;;1.37;;
9964;SDS011;5023;53.554;9.964;2024-03-29T08:29:40;3.40;;;1.30;;
9964;SDS011;5023;53.554;9.964;2024-03-29T08:34:43;2.63;;;1.47;;
9964;SDS011;5023;53.554;9.964;2024-03-29T08:39:45;2.43;;;1.30;;
9964;SDS011;5023;53.554;9.964;2024-03-29T08:44:49;1.33;;;1.10;;
9964;SDS011;5023;53.554;9.964;2024-03-29T08:49:50;1.50;;;1.10;;
9964;SDS011;5023;53.554;9.964;2024-03-29T08:54:52;1.60;;;1.50;;
9964;SDS011;5023;53.554;9.964;2024-03-29T08:59:56;2.80;;;1.30;;
9964;SDS011;5023;53.554;9.964;2024-03-29T09:04:57;1.30;;;1.20;;
9964;SDS011;5023;53.554;9.964;2024-03-29T09:09:59;1.17;;;1.10;;
9964;SDS011;5023;53.554;9.964;2024-03-29T09:15:03;1.13;;;1.00;;
9964;SDS011;5023;53.554;9.964;2024-03-29T09:20:09;2.08;;;1.35;;
9964;SDS011;5023;53.554;9.964;2024-03-29T09:25:11;2.15;;;1.13;;
9964;SDS011;5023;53.554;9.964;2024-03-29T09:30:16;2.13;;;1.52;;
9964;SDS011;5023;53.554;9.964;2024-03-29T09:35:18;1.42;;;1.33;;
9964;SDS011;5023;53.554;9.964;2024-03-29T09:40:20;3.38;;;3.05;;
9964;SDS011;5023;53.554;9.964;2024-03-29T09:45:25;2.20;;;1.77;;
9964;SDS011;5023;53.554;9.964;2024-03-29T09:50:27;2.45;;;1.40;;
9964;SDS011;5023;53.554;9.964;2024-03-29T09:55:29;2.08;;;1.40;;
9964;SDS011;5023;53.554;9.964;2024-03-29T10:00:33;2.13;;;1.10;;
9964;SDS011;5023;53.554;9.964;2024-03-29T10:05:35;1.43;;;1.23;;
9964;SDS011;5023;53.554;9.964;2024-03-29T10:10:39;1.40;;;1.30;;
9964;SDS011;5023;53.554;9.964;2024-03-29T10:15:43;1.73;;;1.63;;
9964;SDS011;5023;53.554;9.964;2024-03-29T10:20:57;3.23;;;1.80;;
9964;SDS011;5023;53.554;9.964;2024-03-29T10:26:00;2.50;;;1.80;;
9964;SDS011;5023;53.554;9.964;2024-03-29T10:31:04;1.93;;;1.50;;
9964;SDS011;5023;53.554;9.964;2024-03-29T10:36:07;2.00;;;1.77;;
9964;SDS011;5023;53.554;9.964;2024-03-29T10:41:12;1.60;;;1.45;;
9964;SDS011;5023;53.554;9.964;2024-03-29T10:46:15;3.57;;;1.60;;
9964;SDS011;5023;53.554;9.964;2024-03-29T10:51:21;2.85;;;1.80;;
9964;SDS011;5023;53.554;9.964;2024-03-29T10:56:25;2.80;;;1.97;;
9964;SDS011;5023;53.554;9.964;2024-03-29T11:01:30;2.75;;;2.55;;
9964;SDS011;5023;53.554;9.964;2024-03-29T11:06:34;2.10;;;1.90;;
9964;SDS011;5023;53.554;9.964;2024-03-29T11:11:40;3.42;;;3.10;;
9964;SDS011;5023;53.554;9.964;2024-03-29T11:16:47;2.10;;;2.00;;
9964;SDS011;5023;53.554;9.964;2024-03-29T11:21:51;7.13;;;5.00;;
9964;SDS011;5023;53.554;9.964;2024-03-29T11:26:54;2.95;;;2.55;;
9964;SDS011;5023;53.554;9.964;2024-03-29T11:32:00;1.95;;;1.85;;
9964;SDS011;5023;53.554;9.964;2024-03-29T11:37:11;3.30;;;2.25;;
9964;SDS011;5023;53.554;9.964;2024-03-29T11:42:16;4.78;;;2.65;;
9964;SDS011;5023;53.554;9.964;2024-03-29T11:47:20;2.10;;;1.90;;
9964;SDS011;5023;53.554;9.964;2024-03-29T11:52:24;2.40;;;2.20;;
9964;SDS011;5023;53.554;9.964;2024-03-29T11:57:29;3.95;;;2.00;;
9964;SDS011;5023;53.554;9.964;2024-03-29T12:02:32;5.05;;;2.40;;
9964;SDS011;5023;53.554;9.964;2024-03-29T12:07:35;2.42;;;2.22;;
9964;SDS011;5023;53.554;9.964;2024-03-29T12:12:37;5.13;;;1.83;;
9964;SDS011;5023;53.554;9.964;2024-03-29T12:17:43;5.35;;;3.50;;
9964;SDS011;5023;53.554;9.964;2024-03-29T12:22:54;4.47;;;2.40;;
9964;SDS011;5023;53.554;9.964;2024-03-29T12:27:57;3.95;;;2.35;;
9964;SDS011;5023;53.554;9.964;2024-03-29T12:33:15;3.08;;;2.00;;
9964;SDS011;5023;53.554;9.964;2024-03-29T12:38:22;2.97;;;2.00;;
9964;SDS011;5023;53.554;9.964;2024-03-29T12:43:43;2.00;;;1.77;;
9964;SDS011;5023;53.554;9.964;2024-03-29T12:48:59;5.47;;;2.33;;
9964;SDS011;5023;53.554;9.964;2024-03-29T12:54:13;2.35;;;2.15;;
9964;SDS011;5023;53.554;9.964;2024-03-29T12:59:19;2.75;;;2.20;;
9964;SDS011;5023;53.554;9.964;2024-03-29T13:04:30;3.38;;;2.22;;
9964;SDS011;5023;53.554;9.964;2024-03-29T13:10:06;2.70;;;2.45;;
9964;SDS011;5023;53.554;9.964;2024-03-29T13:15:32;5.47;;;4.15;;
9964;SDS011;5023;53.554;9.964;2024-03-29T13:20:43;3.00;;;2.03;;
9964;SDS011;5023;53.554;9.964;2024-03-29T13:25:51;2.25;;;2.05;;
9964;SDS011;5023;53.554;9.964;2024-03-29T13:30:56;1.77;;;1.67;;
9964;SDS011;5023;53.554;9.964;2024-03-29T13:35:59;2.47;;;2.28;;
9964;SDS011;5023;53.554;9.964;2024-03-29T13:41:05;1.60;;;1.50;;
9964;SDS011;5023;53.554;9.964;2024-03-29T13:46:15;2.50;;;1.70;;
9964;SDS011;5023;53.554;9.964;2024-03-29T13:51:20;2.03;;;1.83;;
9964;SDS011;5023;53.554;9.964;2024-03-29T13:56:22;3.03;;;1.95;;
9964;SDS011;5023;53.554;9.964;2024-03-29T14:01:24;2.85;;;2.60;;
9964;SDS011;5023;53.554;9.964;2024-03-29T14:06:28;2.00;;;1.80;;
9964;SDS011;5023;53.554;9.964;2024-03-29T14:11:30;2.20;;;2.00;;
9964;SDS011;5023;53.554;9.964;2024-03-29T14:16:32;4.22;;;3.20;;
9964;SDS011;5023;53.554;9.964;2024-03-29T14:21:35;3.47;;;2.53;;
9964;SDS011;5023;53.554;9.964;2024-03-29T14:26:38;2.58;;;2.38;;
9964;SDS011;5023;53.554;9.964;2024-03-29T14:31:41;3.15;;;1.92;;
9964;SDS011;5023;53.554;9.964;2024-03-29T14:36:46;2.70;;;2.50;;
9964;SDS011;5023;53.554;9.964;2024-03-29T14:41:47;2.00;;;1.90;;
9964;SDS011;5023;53.554;9.964;2024-03-29T14:46:51;3.63;;;2.13;;
9964;SDS011;5023;53.554;9.964;2024-03-29T14:51:55;3.75;;;3.40;;
9964;SDS011;5023;53.554;9.964;2024-03-29T14:56:57;3.13;;;2.83;;
9964;SDS011;5023;53.554;9.964;2024-03-29T15:01:59;2.63;;;2.42;;
9964;SDS011;5023;53.554;9.964;2024-03-29T15:07:03;3.30;;;3.00;;
9964;SDS011;5023;53.554;9.964;2024-03-29T15:12:06;3.22;;;2.92;;
9964;SDS011;5023;53.554;9.964;2024-03-29T15:17:08;2.88;;;2.60;;
9964;SDS011;5023;53.554;9.964;2024-03-29T15:22:12;2.72;;;2.53;;
9964;SDS011;5023;53.554;9.964;2024-03-29T15:27:14;2.75;;;2.50;;
9964;SDS011;5023;53.554;9.964;2024-03-29T15:32:27;2.47;;;2.28;;
9964;SDS011;5023;53.554;9.964;2024-03-29T15:37:36;4.75;;;2.90;;
9964;SDS011;5023;53.554;9.964;2024-03-29T15:42:38;3.83;;;3.53;;
9964;SDS011;5023;53.554;9.964;2024-03-29T15:47:41;6.10;;;5.07;;
9964;SDS011;5023;53.554;9.964;2024-03-29T15:52:47;3.20;;;2.78;;
9964;SDS011;5023;53.554;9.964;2024-03-29T15:57:49;3.33;;;3.10;;
9964;SDS011;5023;53.554;9.964;2024-03-29T16:02:50;5.13;;;3.83;;
9964;SDS011;5023;53.554;9.964;2024-03-29T16:07:54;3.38;;;3.08;;
9964;SDS011;5023;53.554;9.964;2024-03-29T16:12:56;2.88;;;2.67;;
9964;SDS011;5023;53.554;9.964;2024-03-29T16:17:58;3.30;;;3.00;;
9964;SDS011;5023;53.554;9.964;2024-03-29T16:23:02;3.63;;;3.33;;
9964;SDS011;5023;53.554;9.964;2024-03-29T16:28:04;3.72;;;3.45;;
9964;SDS011;5023;53.554;9.964;2024-03-29T16:33:08;3.90;;;3.45;;
9964;SDS011;5023;53.554;9.964;2024-03-29T16:38:14;3.28;;;2.97;;
9964;SDS011;5023;53.554;9.964;2024-03-29T16:43:16;2.67;;;2.50;;
9964;SDS011;5023;53.554;9.964;2024-03-29T16:48:19;4.32;;;3.70;;
9964;SDS011;5023;53.554;9.964;2024-03-29T16:53:23;3.28;;;2.97;;
9964;SDS011;5023;53.554;9.964;2024-03-29T16:58:25;5.07;;;2.88;;
9964;SDS011;5023;53.554;9.964;2024-03-29T17:03:28;4.13;;;3.70;;
9964;SDS011;5023;53.554;9.964;2024-03-29T17:08:31;4.05;;;3.65;;
9964;SDS011;5023;53.554;9.964;2024-03-29T17:13:33;3.63;;;3.33;;
9964;SDS011;5023;53.554;9.964;2024-03-29T17:18:35;4.13;;;3.42;;
9964;SDS011;5023;53.554;9.964;2024-03-29T17:23:38;3.67;;;3.38;;
9964;SDS011;5023;53.554;9.964;2024-03-29T17:28:40;3.33;;;2.60;;
9964;SDS011;5023;53.554;9.964;2024-03-29T17:33:43;3.97;;;3.67;;
9964;SDS011;5023;53.554;9.964;2024-03-29T17:38:46;3.20;;;2.90;;
9964;SDS011;5023;53.554;9.964;2024-03-29T17:43:48;5.05;;;4.50;;
9964;SDS011;5023;53.554;9.964;2024-03-29T17:48:50;6.45;;;5.53;;
9964;SDS011;5023;53.554;9.964;2024-03-29T17:53:53;8.13;;;6.70;;
9964;SDS011;5023;53.554;9.964;2024-03-29T17:58:55;8.65;;;7.45;;
9964;SDS011;5023;53.554;9.964;2024-03-29T18:03:58;5.43;;;4.93;;
9964;SDS011;5023;53.554;9.964;2024-03-29T18:09:02;4.00;;;3.60;;
9964;SDS011;5023;53.554;9.964;2024-03-29T18:14:04;5.35;;;4.40;;
9964;SDS011;5023;53.554;9.964;2024-03-29T18:19:07;3.40;;;3.10;;
9964;SDS011;5023;53.554;9.964;2024-03-29T18:24:10;5.13;;;4.32;;
9964;SDS011;5023;53.554;9.964;2024-03-29T18:29:12;13.63;;;9.93;;
9964;SDS011;5023;53.554;9.964;2024-03-29T18:34:14;9.48;;;8.07;;
9964;SDS011;5023;53.554;9.964;2024-03-29T18:39:19;7.65;;;6.85;;
9964;SDS011;5023;53.554;9.964;2024-03-29T18:44:23;12.20;;;10.90;;
9964;SDS011;5023;53.554;9.964;2024-03-29T18:49:28;4.82;;;3.95;;
9964;SDS011;5023;53.554;9.964;2024-03-29T18:54:31;8.82;;;7.45;;
9964;SDS011;5023;53.554;9.964;2024-03-29T18:59:33;8.35;;;7.30;;
9964;SDS011;5023;53.554;9.964;2024-03-29T19:04:35;9.57;;;8.30;;
9964;SDS011;5023;53.554;9.964;2024-03-29T19:09:40;10.35;;;7.97;;
9964;SDS011;5023;53.554;9.964;2024-03-29T19:14:42;9.43;;;8.52;;
9964;SDS011;5023;53.554;9.964;2024-03-29T19:19:44;14.98;;;12.68;;
9964;SDS011;5023;53.554;9.964;2024-03-29T19:24:48;14.95;;;12.73;;
9964;SDS011;5023;53.554;9.964;2024-03-29T19:29:52;10.82;;;9.77;;
9964;SDS011;5023;53.554;9.964;2024-03-29T19:34:54;9.63;;;8.73;;
9964;SDS011;5023;53.554;9.964;2024-03-29T19:39:58;10.82;;;9.70;;
9964;SDS011;5023;53.554;9.964;2024-03-29T19:45:00;10.27;;;8.90;;
9964;SDS011;5023;53.554;9.964;2024-03-29T19:50:02;30.63;;;18.77;;
9964;SDS011;5023;53.554;9.964;2024-03-29T19:55:07;16.25;;;12.82;;
9964;SDS011;5023;53.554;9.964;2024-03-29T20:00:09;12.43;;;10.77;;
9964;SDS011;5023;53.554;9.964;2024-03-29T20:05:12;15.30;;;11.68;;
9964;SDS011;5023;53.554;9.964;2024-03-29T20:10:16;11.02;;;9.35;;
9964;SDS011;5023;53.554;9.964;2024-03-29T20:15:18;14.27;;;12.77;;
9964;SDS011;5023;53.554;9.964;2024-03-29T20:20:19;11.65;;;10.23;;
9964;SDS011;5023;53.554;9.964;2024-03-29T20:25:23;14.93;;;13.35;;
9964;SDS011;5023;53.554;9.964;2024-03-29T20:30:25;11.73;;;10.52;;
9964;SDS011;5023;53.554;9.964;2024-03-29T20:35:26;8.82;;;7.82;;
9964;SDS011;5023;53.554;9.964;2024-03-29T20:40:30;9.25;;;8.23;;
9964;SDS011;5023;53.554;9.964;2024-03-29T20:45:32;22.33;;;20.02;;
9964;SDS011;5023;53.554;9.964;2024-03-29T20:50:34;8.98;;;8.02;;
9964;SDS011;5023;53.554;9.964;2024-03-29T20:55:37;9.98;;;8.65;;
9964;SDS011;5023;53.554;9.964;2024-03-29T21:00:41;12.23;;;7.25;;
9964;SDS011;5023;53.554;9.964;2024-03-29T21:05:43;10.45;;;8.75;;
9964;SDS011;5023;53.554;9.964;2024-03-29T21:10:46;6.60;;;5.50;;
9964;SDS011;5023;53.554;9.964;2024-03-29T21:15:48;6.88;;;6.18;;
9964;SDS011;5023;53.554;9.964;2024-03-29T21:20:50;7.00;;;6.35;;
9964;SDS011;5023;53.554;9.964;2024-03-29T21:25:53;11.25;;;9.55;;
9964;SDS011;5023;53.554;9.964;2024-03-29T21:30:55;6.50;;;5.90;;
9964;SDS011;5023;53.554;9.964;2024-03-29T21:35:57;6.25;;;5.72;;
9964;SDS011;5023;53.554;9.964;2024-03-29T21:41:01;9.00;;;7.80;;
9964;SDS011;5023;53.554;9.964;2024-03-29T21:46:03;10.18;;;8.38;;
9964;SDS011;5023;53.554;9.964;2024-03-29T21:51:05;11.05;;;9.88;;
9964;SDS011;5023;53.554;9.964;2024-03-29T21:56:08;8.25;;;6.28;;
9964;SDS011;5023;53.554;9.964;2024-03-29T22:01:10;7.43;;;6.55;;
9964;SDS011;5023;53.554;9.964;2024-03-29T22:06:14;18.70;;;16.63;;
9964;SDS011;5023;53.554;9.964;2024-03-29T22:11:17;7.53;;;6.63;;
9964;SDS011;5023;53.554;9.964;2024-03-29T22:16:19;5.45;;;5.03;;
9964;SDS011;5023;53.554;9.964;2024-03-29T22:21:21;6.90;;;6.20;;
9964;SDS011;5023;53.554;9.964;2024-03-29T22:26:26;13.88;;;12.57;;
9964;SDS011;5023;53.554;9.964;2024-03-29T22:31:28;10.45;;;9.43;;
9964;SDS011;5023;53.554;9.964;2024-03-29T22:36:30;8.63;;;7.82;;
9964;SDS011;5023;53.554;9.964;2024-03-29T22:41:35;6.93;;;6.25;;
9964;SDS011;5023;53.554;9.964;2024-03-29T22:46:37;7.10;;;6.40;;
9964;SDS011;5023;53.554;9.964;2024-03-29T22:51:39;7.20;;;5.97;;
9964;SDS011;5023;53.554;9.964;2024-03-29T22:56:45;7.10;;;5.88;;
9964;SDS011;5023;53.554;9.964;2024-03-29T23:01:46;7.35;;;6.65;;
9964;SDS011;5023;53.554;9.964;2024-03-29T23:06:50;7.53;;;6.70;;
9964;SDS011;5023;53.554;9.964;2024-03-29T23:11:53;8.57;;;7.72;;
9964;SDS011;5023;53.554;9.964;2024-03-29T23:16:55;9.38;;;8.48;;
9964;SDS011;5023;53.554;9.964;2024-03-29T23:21:57;9.48;;;8.45;;
9964;SDS011;5023;53.554;9.964;2024-03-29T23:27:00;15.65;;;12.63;;
9964;SDS011;5023;53.554;9.964;2024-03-29T23:32:02;8.40;;;7.60;;
9964;SDS011;5023;53.554;9.964;2024-03-29T23:37:04;7.22;;;6.63;;
9964;SDS011;5023;53.554;9.964;2024-03-29T23:42:08;7.50;;;6.80;;
9964;SDS011;5023;53.554;9.964;2024-03-29T23:47:10;17.17;;;14.85;;
9964;SDS011;5023;53.554;9.964;2024-03-29T23:52:12;10.98;;;7.47;;
9964;SDS011;5023;53.554;9.964;2024-03-29T23:57:15;6.88;;;6.22;;
